createdAt,value
2019-02-07T00:00:40.599Z,57.60
2019-02-07T00:03:11.889Z,57.66
2019-02-07T00:05:43.077Z,57.66
2019-02-07T00:08:17.191Z,57.58
2019-02-07T00:10:48.602Z,57.54
2019-02-07T00:13:19.870Z,57.53
2019-02-07T00:15:52.192Z,57.50
2019-02-07T00:18:27.185Z,57.47
2019-02-07T00:20:58.690Z,57.48
2019-02-07T00:23:30.064Z,57.48
2019-02-07T00:26:01.283Z,57.49
2019-02-07T00:28:32.537Z,57.49
2019-02-07T00:31:03.778Z,57.49
2019-02-07T00:33:35.019Z,57.52
2019-02-07T00:36:07.810Z,57.50
2019-02-07T00:38:39.476Z,57.32
2019-02-07T00:41:10.752Z,57.32
2019-02-07T00:43:41.904Z,57.50
2019-02-07T00:46:13.508Z,57.67
2019-02-07T00:48:45.023Z,57.67
2019-02-07T00:51:16.388Z,57.53
2019-02-07T00:53:47.787Z,57.38
2019-02-07T00:56:19.121Z,57.38
2019-02-07T00:58:50.641Z,57.54
2019-02-07T01:01:21.797Z,57.56
2019-02-07T01:03:53.087Z,57.57
2019-02-07T01:06:24.270Z,57.56
2019-02-07T01:08:55.542Z,57.56
2019-02-07T01:11:27.329Z,57.74
2019-02-07T01:13:58.591Z,57.64
2019-02-07T01:16:29.864Z,57.65
2019-02-07T01:19:01.040Z,57.64
2019-02-07T01:21:32.366Z,57.66
2019-02-07T01:24:03.539Z,57.67
2019-02-07T01:26:34.949Z,57.64
2019-02-07T01:29:06.201Z,57.68
2019-02-07T01:31:37.515Z,57.70
2019-02-07T01:34:09.809Z,57.88
2019-02-07T01:36:41.016Z,57.88
2019-02-07T01:39:12.413Z,57.79
2019-02-07T01:41:43.765Z,57.81
2019-02-07T01:44:15.157Z,57.78
2019-02-07T01:46:46.476Z,57.82
2019-02-07T01:49:17.844Z,57.85
2019-02-07T01:51:49.098Z,57.86
2019-02-07T01:54:20.303Z,57.89
2019-02-07T01:56:51.541Z,57.89
2019-02-07T01:59:22.845Z,57.89
2019-02-07T02:01:54.250Z,57.81
2019-02-07T02:04:25.862Z,57.95
2019-02-07T02:06:57.209Z,57.94
2019-02-07T02:09:29.595Z,57.95
2019-02-07T02:12:00.857Z,58.01
2019-02-07T02:14:32.325Z,58.01
2019-02-07T02:17:03.672Z,58.12
2019-02-07T02:19:34.953Z,58.08
2019-02-07T02:22:06.185Z,58.02
2019-02-07T02:24:37.499Z,58.02
2019-02-07T02:27:08.740Z,58.00
2019-02-07T02:29:40.319Z,58.00
2019-02-07T02:32:11.740Z,58.17
2019-02-07T02:34:43.873Z,58.18
2019-02-07T02:37:15.330Z,58.20
2019-02-07T02:39:46.666Z,58.14
2019-02-07T02:42:18.338Z,58.14
2019-02-07T02:44:49.543Z,58.28
2019-02-07T02:47:20.764Z,58.42
2019-02-07T02:49:52.218Z,58.42
2019-02-07T02:52:23.397Z,58.32
2019-02-07T02:54:56.480Z,58.35
2019-02-07T02:57:29.324Z,58.39
2019-02-07T03:00:00.575Z,58.39
2019-02-07T03:02:45.214Z,58.40
2019-02-07T03:05:41.733Z,58.42
2019-02-07T03:08:30.485Z,58.47
2019-02-07T03:11:25.060Z,58.48
2019-02-07T03:14:13.978Z,58.47
2019-02-07T03:17:01.260Z,58.51
2019-02-07T03:19:54.231Z,58.52
2019-02-07T03:22:56.909Z,58.55
2019-02-07T03:25:50.075Z,58.55
2019-02-07T03:28:36.862Z,58.57
2019-02-07T03:31:21.523Z,58.57
2019-02-07T03:34:10.809Z,58.57
2019-02-07T03:36:59.929Z,58.59
2019-02-07T03:39:53.200Z,58.58
2019-02-07T03:42:43.373Z,58.56
2019-02-07T03:45:42.688Z,58.57
2019-02-07T03:48:32.027Z,58.54
2019-02-07T03:51:34.425Z,58.55
2019-02-07T03:54:30.789Z,58.55
2019-02-07T03:57:23.066Z,58.55
2019-02-07T04:00:12.110Z,58.55
2019-02-07T04:03:02.405Z,58.58
2019-02-07T04:05:56.716Z,58.55
2019-02-07T04:08:45.361Z,58.54
2019-02-07T04:11:34.339Z,58.56
2019-02-07T04:14:29.319Z,58.46
2019-02-07T04:17:11.379Z,58.46
2019-02-07T04:19:54.845Z,58.45
2019-02-07T04:22:43.893Z,58.45
2019-02-07T04:25:40.222Z,58.50
2019-02-07T04:28:42.843Z,58.48
2019-02-07T04:31:23.761Z,58.47
2019-02-07T04:34:32.075Z,58.42
2019-02-07T04:37:22.560Z,58.39
2019-02-07T04:40:24.777Z,58.38
2019-02-07T04:43:15.074Z,58.40
2019-02-07T04:46:26.389Z,58.34
2019-02-07T04:49:05.299Z,58.32
2019-02-07T04:51:49.945Z,58.20
2019-02-07T04:54:43.263Z,58.19
2019-02-07T04:57:24.191Z,58.26
2019-02-07T05:00:05.459Z,58.19
2019-02-07T05:03:00.228Z,58.22
2019-02-07T05:06:02.544Z,58.16
2019-02-07T05:08:39.816Z,58.05
2019-02-07T05:11:26.205Z,58.05
2019-02-07T05:14:09.939Z,58.00
2019-02-07T05:17:00.160Z,57.90
2019-02-07T05:19:50.658Z,58.00
2019-02-07T05:22:38.276Z,58.05
2019-02-07T05:25:37.584Z,58.04
2019-02-07T05:28:33.587Z,57.94
2019-02-07T05:31:27.137Z,57.76
2019-02-07T05:34:16.054Z,57.76
2019-02-07T05:37:18.811Z,57.88
2019-02-07T05:40:08.064Z,57.83
2019-02-07T05:42:47.091Z,57.85
2019-02-07T05:45:35.977Z,57.93
2019-02-07T05:48:28.927Z,57.93
2019-02-07T05:51:34.130Z,57.81
2019-02-07T05:54:24.755Z,57.79
2019-02-07T05:57:14.898Z,57.79
2019-02-07T06:00:16.139Z,57.81
2019-02-07T06:03:10.819Z,57.77
2019-02-07T06:06:10.031Z,57.70
2019-02-07T06:08:53.524Z,57.75
2019-02-07T06:11:42.595Z,57.76
2019-02-07T06:14:31.667Z,57.76
2019-02-07T06:17:24.949Z,57.66
2019-02-07T06:20:20.918Z,57.66
2019-02-07T06:23:18.015Z,57.78
2019-02-07T06:25:59.204Z,57.60
2019-02-07T06:28:58.471Z,57.60
2019-02-07T06:31:50.413Z,57.81
2019-02-07T06:34:40.713Z,57.70
2019-02-07T06:37:30.881Z,57.73
2019-02-07T06:40:39.118Z,57.74
2019-02-07T06:43:38.421Z,57.80
2019-02-07T06:46:18.676Z,57.80
2019-02-07T06:49:11.665Z,57.80
2019-02-07T06:52:00.059Z,57.84
2019-02-07T06:55:02.630Z,57.85
2019-02-07T06:57:46.862Z,57.82
2019-02-07T07:00:35.144Z,57.84
2019-02-07T07:03:16.462Z,57.86
2019-02-07T07:06:05.515Z,57.83
2019-02-07T07:08:59.225Z,57.83
2019-02-07T07:11:56.612Z,57.90
2019-02-07T07:14:36.426Z,57.90
2019-02-07T07:17:25.606Z,57.86
2019-02-07T07:20:15.165Z,57.85
2019-02-07T07:23:14.864Z,57.84
2019-02-07T07:26:03.862Z,57.81
2019-02-07T07:29:00.335Z,57.69
2019-02-07T07:31:56.886Z,57.64
2019-02-07T07:34:41.922Z,57.71
2019-02-07T07:37:50.501Z,57.67
2019-02-07T07:40:37.435Z,57.60
2019-02-07T07:43:30.323Z,57.55
2019-02-07T07:46:31.375Z,57.64
2019-02-07T07:49:20.248Z,57.64
2019-02-07T07:52:07.649Z,57.47
2019-02-07T07:55:00.852Z,57.43
2019-02-07T07:57:57.105Z,57.47
2019-02-07T08:00:52.612Z,57.47
2019-02-07T08:03:47.297Z,57.46
2019-02-07T08:06:49.522Z,57.43
2019-02-07T08:09:38.682Z,57.24
2019-02-07T08:12:28.312Z,57.27
2019-02-07T08:15:16.719Z,57.22
2019-02-07T08:18:15.960Z,57.22
2019-02-07T08:21:05.093Z,57.13
2019-02-07T08:24:01.075Z,56.98
2019-02-07T08:26:57.597Z,56.98
2019-02-07T08:29:53.827Z,57.04
2019-02-07T08:33:02.427Z,57.04
2019-02-07T08:35:50.549Z,57.06
2019-02-07T08:38:43.855Z,57.01
2019-02-07T08:41:32.677Z,57.00
2019-02-07T08:44:32.184Z,56.59
2019-02-07T08:47:31.304Z,56.71
2019-02-07T08:50:11.081Z,56.64
2019-02-07T08:53:01.248Z,56.61
2019-02-07T08:56:03.457Z,56.45
2019-02-07T08:58:49.984Z,56.47
2019-02-07T09:01:42.928Z,56.34
2019-02-07T09:04:31.680Z,56.32
2019-02-07T09:07:17.676Z,56.33
2019-02-07T09:10:03.281Z,56.09
2019-02-07T09:12:57.694Z,55.76
2019-02-07T09:15:44.777Z,56.04
2019-02-07T09:18:40.805Z,56.00
2019-02-07T09:21:42.966Z,55.97
2019-02-07T09:24:27.822Z,56.03
2019-02-07T09:27:20.415Z,55.77
2019-02-07T09:30:25.757Z,55.77
2019-02-07T09:33:27.641Z,55.77
2019-02-07T09:36:18.423Z,55.75
2019-02-07T09:39:07.823Z,55.71
2019-02-07T09:41:56.846Z,55.30
2019-02-07T09:44:46.213Z,55.22
2019-02-07T09:47:36.542Z,55.34
2019-02-07T09:50:18.616Z,55.39
2019-02-07T09:53:04.788Z,55.41
2019-02-07T09:55:53.841Z,55.41
2019-02-07T09:58:46.234Z,55.22
2019-02-07T10:01:42.559Z,55.21
2019-02-07T10:04:44.808Z,55.14
2019-02-07T10:07:40.729Z,55.19
2019-02-07T10:10:22.155Z,55.31
2019-02-07T10:13:15.247Z,55.28
2019-02-07T10:16:23.515Z,55.38
2019-02-07T10:19:22.535Z,55.16
2019-02-07T10:22:11.485Z,55.13
2019-02-07T10:25:00.374Z,55.13
2019-02-07T10:27:58.774Z,55.03
2019-02-07T10:30:49.235Z,54.95
2019-02-07T10:33:44.675Z,55.09
2019-02-07T10:36:41.272Z,55.00
2019-02-07T10:39:32.536Z,55.10
2019-02-07T10:42:19.790Z,55.03
2019-02-07T10:45:07.288Z,55.03
2019-02-07T10:48:09.655Z,55.02
2019-02-07T10:51:02.946Z,55.10
2019-02-07T10:53:55.908Z,55.09
2019-02-07T10:57:04.505Z,54.97
2019-02-07T10:59:53.570Z,55.03
2019-02-07T11:02:43.714Z,54.83
2019-02-07T11:05:39.171Z,54.85
2019-02-07T11:08:44.491Z,54.74
2019-02-07T11:11:37.705Z,54.73
2019-02-07T11:14:46.919Z,54.81
2019-02-07T11:17:46.450Z,54.80
2019-02-07T11:20:55.580Z,54.75
2019-02-07T11:23:44.438Z,54.66
2019-02-07T11:26:33.686Z,54.73
2019-02-07T11:29:27.630Z,54.72
2019-02-07T11:32:24.093Z,54.79
2019-02-07T11:35:13.134Z,54.70
2019-02-07T11:38:18.525Z,54.71
2019-02-07T11:41:26.892Z,54.54
2019-02-07T11:44:20.630Z,54.29
2019-02-07T11:47:11.214Z,54.27
2019-02-07T11:49:57.296Z,54.12
2019-02-07T11:52:46.135Z,54.04
2019-02-07T11:55:28.247Z,54.05
2019-02-07T11:58:18.559Z,54.08
2019-02-07T12:01:12.033Z,54.17
2019-02-07T12:04:08.153Z,54.23
2019-02-07T12:06:57.130Z,54.29
2019-02-07T12:09:54.385Z,54.35
2019-02-07T12:12:43.563Z,54.42
2019-02-07T12:15:32.874Z,54.46
2019-02-07T12:18:26.371Z,54.40
2019-02-07T12:21:19.500Z,54.26
2019-02-07T12:24:08.767Z,54.29
2019-02-07T12:26:55.803Z,54.38
2019-02-07T12:29:49.141Z,54.39
2019-02-07T12:32:40.557Z,54.44
2019-02-07T12:35:37.247Z,54.53
2019-02-07T12:38:26.617Z,54.56
2019-02-07T12:41:19.362Z,54.55
2019-02-07T12:44:09.489Z,54.61
2019-02-07T12:46:58.320Z,54.64
2019-02-07T12:49:48.499Z,54.75
2019-02-07T12:52:31.610Z,54.87
2019-02-07T12:55:26.672Z,54.96
2019-02-07T12:58:14.471Z,55.10
2019-02-07T13:01:00.827Z,55.18
2019-02-07T13:03:45.493Z,55.22
2019-02-07T13:06:34.573Z,55.23
2019-02-07T13:09:38.214Z,55.25
2019-02-07T13:12:25.085Z,55.24
2019-02-07T13:15:06.976Z,55.19
2019-02-07T13:17:52.234Z,55.14
2019-02-07T13:20:34.303Z,55.15
2019-02-07T13:23:23.321Z,55.14
2019-02-07T13:26:03.160Z,55.16
2019-02-07T13:28:56.431Z,55.19
2019-02-07T13:31:46.441Z,55.21
2019-02-07T13:34:34.229Z,55.25
2019-02-07T13:37:30.549Z,55.42
2019-02-07T13:40:22.751Z,55.48
2019-02-07T13:43:11.935Z,55.55
2019-02-07T13:46:00.929Z,55.69
2019-02-07T13:48:49.859Z,55.73
2019-02-07T13:51:38.782Z,55.72
2019-02-07T13:54:38.444Z,55.81
2019-02-07T13:57:25.262Z,55.83
2019-02-07T14:00:20.152Z,55.98
2019-02-07T14:03:09.156Z,55.97
2019-02-07T14:05:55.514Z,55.99
2019-02-07T14:08:44.352Z,56.00
2019-02-07T14:11:37.283Z,56.04
2019-02-07T14:14:15.604Z,56.08
2019-02-07T14:16:58.345Z,56.13
2019-02-07T14:20:03.284Z,56.11
2019-02-07T14:22:46.612Z,56.19
2019-02-07T14:25:39.534Z,56.24
2019-02-07T14:28:34.954Z,56.28
2019-02-07T14:31:25.349Z,56.30
2019-02-07T14:34:18.709Z,56.43
2019-02-07T14:37:00.930Z,56.50
2019-02-07T14:39:49.822Z,56.52
2019-02-07T14:42:30.905Z,56.57
2019-02-07T14:45:07.683Z,56.64
2019-02-07T14:47:38.862Z,56.65
2019-02-07T14:50:14.801Z,56.64
2019-02-07T14:52:44.342Z,56.68
2019-02-07T14:55:15.554Z,56.69
2019-02-07T14:57:46.768Z,56.68
2019-02-07T15:00:21.430Z,56.70
2019-02-07T15:02:52.655Z,56.72
2019-02-07T15:05:24.007Z,56.73
2019-02-07T15:07:55.231Z,56.73
2019-02-07T15:10:26.474Z,56.75
2019-02-07T15:12:57.697Z,56.74
2019-02-07T15:15:28.931Z,56.75
2019-02-07T15:18:00.199Z,56.72
2019-02-07T15:20:31.499Z,56.73
2019-02-07T15:23:03.113Z,56.73
2019-02-07T15:25:34.642Z,56.72
2019-02-07T15:28:05.857Z,56.71
2019-02-07T15:30:37.104Z,56.73
2019-02-07T15:33:08.406Z,56.77
2019-02-07T15:35:44.716Z,56.77
2019-02-07T15:38:16.063Z,56.74
2019-02-07T15:40:47.529Z,56.74
2019-02-07T15:43:18.756Z,56.75
2019-02-07T15:45:50.096Z,56.77
2019-02-07T15:48:21.655Z,56.83
2019-02-07T15:50:52.937Z,56.91
2019-02-07T15:53:24.136Z,57.01
2019-02-07T15:55:55.516Z,57.08
2019-02-07T15:58:51.789Z,57.19
2019-02-07T16:01:42.219Z,57.25
2019-02-07T16:04:17.208Z,57.37
2019-02-07T16:06:48.702Z,57.43
2019-02-07T16:09:20.221Z,57.44
2019-02-07T16:11:51.961Z,57.46
2019-02-07T16:14:23.558Z,57.51
2019-02-07T16:16:54.809Z,57.53
2019-02-07T16:19:26.062Z,57.56
2019-02-07T16:21:57.257Z,57.60
2019-02-07T16:24:28.570Z,57.63
2019-02-07T16:26:59.770Z,57.67
2019-02-07T16:29:31.325Z,57.65
2019-02-07T16:32:03.612Z,57.67
2019-02-07T16:34:34.856Z,57.70
2019-02-07T16:37:06.068Z,57.74
2019-02-07T16:39:37.322Z,57.73
2019-02-07T16:42:08.578Z,57.73
2019-02-07T16:44:39.795Z,57.76
2019-02-07T16:47:11.065Z,57.76
2019-02-07T16:49:42.353Z,57.78
2019-02-07T16:52:13.590Z,57.79
2019-02-07T16:54:44.929Z,57.75
2019-02-07T16:57:16.631Z,57.75
2019-02-07T16:59:47.970Z,57.76
2019-02-07T17:02:19.276Z,57.84
2019-02-07T17:04:50.516Z,57.91
2019-02-07T17:07:21.808Z,57.92
2019-02-07T17:09:53.670Z,57.96
2019-02-07T17:12:24.876Z,58.02
2019-02-07T17:14:57.113Z,58.00
2019-02-07T17:17:28.322Z,58.09
2019-02-07T17:19:59.504Z,58.18
2019-02-07T17:22:31.364Z,58.27
2019-02-07T17:25:02.631Z,58.24
2019-02-07T17:27:33.945Z,58.33
2019-02-07T17:30:11.001Z,58.48
2019-02-07T17:32:42.399Z,58.54
2019-02-07T17:35:16.219Z,58.57
2019-02-07T17:37:47.462Z,58.50
2019-02-07T17:40:20.216Z,58.57
2019-02-07T17:42:52.688Z,58.56
2019-02-07T17:45:25.110Z,58.52
2019-02-07T17:47:56.658Z,58.55
2019-02-07T17:50:31.238Z,58.59
2019-02-07T17:53:05.038Z,58.56
2019-02-07T17:55:37.051Z,58.62
2019-02-07T17:58:08.915Z,58.65
2019-02-07T18:00:51.520Z,58.55
2019-02-07T18:03:22.778Z,58.58
2019-02-07T18:05:54.103Z,58.61
2019-02-07T18:08:25.431Z,58.55
2019-02-07T18:10:56.805Z,58.52
2019-02-07T18:13:28.140Z,58.63
2019-02-07T18:15:59.528Z,58.71
2019-02-07T18:18:31.025Z,58.71
2019-02-07T18:21:02.910Z,58.87
2019-02-07T18:23:34.796Z,58.94
2019-02-07T18:26:06.238Z,59.11
2019-02-07T18:28:37.931Z,59.06
2019-02-07T18:31:09.380Z,59.14
2019-02-07T18:33:41.239Z,59.29
2019-02-07T18:36:14.747Z,59.32
2019-02-07T18:38:46.139Z,59.37
2019-02-07T18:41:17.593Z,59.31
2019-02-07T18:43:48.802Z,59.31
2019-02-07T18:46:20.021Z,59.44
2019-02-07T18:48:51.576Z,59.49
2019-02-07T18:51:22.897Z,59.45
2019-02-07T18:53:54.298Z,59.53
2019-02-07T18:56:25.641Z,59.51
2019-02-07T18:58:57.940Z,59.57
2019-02-07T19:01:29.469Z,59.73
2019-02-07T19:04:00.721Z,59.74
2019-02-07T19:06:33.412Z,59.71
2019-02-07T19:09:07.792Z,59.67
2019-02-07T19:11:39.068Z,59.72
2019-02-07T19:14:10.726Z,59.68
2019-02-07T19:16:42.221Z,59.70
2019-02-07T19:19:13.713Z,59.69
2019-02-07T19:21:56.477Z,59.72
2019-02-07T19:24:18.670Z,59.80
2019-02-07T19:26:50.188Z,59.86
2019-02-07T19:29:21.769Z,59.70
2019-02-07T19:31:53.276Z,59.74
2019-02-07T19:34:24.606Z,59.75
2019-02-07T19:36:55.966Z,59.87
2019-02-07T19:39:27.276Z,59.76
2019-02-07T19:41:58.528Z,59.84
2019-02-07T19:44:29.856Z,59.91
2019-02-07T19:47:01.090Z,59.81
2019-02-07T19:49:32.246Z,59.73
2019-02-07T19:52:08.156Z,59.77
2019-02-07T19:54:37.491Z,59.84
2019-02-07T19:57:08.732Z,59.81
2019-02-07T19:59:40.003Z,59.99
2019-02-07T20:02:11.223Z,60.02
2019-02-07T20:04:42.755Z,59.89
2019-02-07T20:07:14.238Z,59.98
2019-02-07T20:09:45.453Z,59.93
2019-02-07T20:12:16.702Z,60.06
2019-02-07T20:14:48.119Z,60.22
2019-02-07T20:17:19.335Z,60.15
2019-02-07T20:19:52.150Z,60.24
2019-02-07T20:22:23.425Z,60.26
2019-02-07T20:24:54.831Z,60.24
2019-02-07T20:27:25.955Z,60.24
2019-02-07T20:29:57.316Z,60.29
2019-02-07T20:32:28.494Z,60.44
2019-02-07T20:35:00.002Z,60.40
2019-02-07T20:37:31.282Z,60.38
2019-02-07T20:40:02.449Z,60.40
2019-02-07T20:42:34.726Z,60.42
2019-02-07T20:45:07.854Z,60.34
2019-02-07T20:47:40.091Z,60.40
2019-02-07T20:50:16.116Z,60.28
2019-02-07T20:52:48.621Z,60.26
2019-02-07T20:55:20.525Z,60.26
2019-02-07T20:57:52.156Z,60.28
2019-02-07T21:00:26.016Z,60.28
2019-02-07T21:02:57.335Z,60.35
2019-02-07T21:05:29.783Z,60.39
2019-02-07T21:08:02.128Z,60.38
2019-02-07T21:10:35.453Z,60.32
2019-02-07T21:13:08.179Z,60.46
2019-02-07T21:15:39.713Z,60.53
2019-02-07T21:18:10.945Z,60.56
2019-02-07T21:20:42.362Z,60.63
2019-02-07T21:23:13.687Z,60.61
2019-02-07T21:25:47.508Z,60.66
2019-02-07T21:28:18.824Z,60.53
2019-02-07T21:30:50.046Z,60.59
2019-02-07T21:33:21.244Z,60.42
2019-02-07T21:35:52.477Z,60.49
2019-02-07T21:38:24.745Z,60.52
2019-02-07T21:40:57.456Z,60.55
2019-02-07T21:43:29.241Z,60.57
2019-02-07T21:46:00.479Z,60.53
2019-02-07T21:48:31.695Z,60.46
2019-02-07T21:51:02.913Z,60.61
2019-02-07T21:53:34.228Z,60.64
2019-02-07T21:56:05.891Z,60.68
2019-02-07T21:58:37.159Z,60.76
2019-02-07T22:01:08.444Z,60.76
2019-02-07T22:03:39.680Z,60.99
2019-02-07T22:06:10.878Z,60.97
2019-02-07T22:08:42.239Z,60.93
2019-02-07T22:11:13.474Z,61.04
2019-02-07T22:13:44.759Z,61.05
2019-02-07T22:16:15.947Z,61.21
2019-02-07T22:18:47.197Z,61.19
2019-02-07T22:21:18.683Z,61.13
2019-02-07T22:23:49.929Z,61.07
2019-02-07T22:26:21.144Z,61.08
2019-02-07T22:28:52.359Z,61.04
2019-02-07T22:31:23.716Z,61.17
2019-02-07T22:33:55.289Z,61.06
2019-02-07T22:36:26.551Z,61.20
2019-02-07T22:38:57.754Z,61.25
2019-02-07T22:41:29.020Z,61.35
2019-02-07T22:44:00.230Z,61.25
2019-02-07T22:46:31.734Z,61.22
2019-02-07T22:49:03.109Z,61.42
2019-02-07T22:51:34.401Z,61.23
2019-02-07T22:54:05.780Z,61.13
2019-02-07T22:56:45.070Z,61.10
2019-02-07T22:59:09.911Z,61.06
2019-02-07T23:01:50.554Z,61.18
2019-02-07T23:04:23.101Z,61.11
2019-02-07T23:06:54.350Z,61.18
2019-02-07T23:09:25.569Z,61.09
2019-02-07T23:11:57.076Z,61.11
2019-02-07T23:14:28.596Z,61.06
2019-02-07T23:17:02.980Z,60.99
2019-02-07T23:19:34.315Z,61.01
2019-02-07T23:22:05.776Z,60.85
2019-02-07T23:24:37.577Z,60.86
2019-02-07T23:27:08.885Z,61.04
2019-02-07T23:29:40.316Z,60.99
2019-02-07T23:32:11.499Z,61.09
2019-02-07T23:34:42.719Z,60.97
2019-02-07T23:37:14.721Z,60.92
2019-02-07T23:39:46.196Z,60.95
2019-02-07T23:42:18.546Z,60.96
2019-02-07T23:44:49.785Z,60.90
2019-02-07T23:47:21.034Z,60.87
2019-02-07T23:49:52.444Z,60.75
2019-02-07T23:52:23.691Z,60.65
2019-02-07T23:54:54.941Z,60.71
2019-02-07T23:57:26.136Z,60.66
2019-02-07T23:59:57.340Z,60.56
